Terminal Aerodrome Forecast
Issued by NWS Duluth, MN

Home | Current Version | Previous Version | Text Only | Print | Product List | Glossary On
Versions: 1 2 3 4 5 6 7 8 9 10 11 12 13 14 15 16 17
000
FTUS43 KDLH 040220 AAB
TAFDLH
TAF AMD
KDLH 040220Z 0402/0424 35004KT 6SM FU SKC
     FM040500 36004KT 4SM FU SKC
      TEMPO 0408/0411 1SM BR FEW005
     FM041200 08007KT 4SM FU FEW050
     FM041800 10010KT P6SM FEW050=

USA.gov is the U.S. government's official web portal to all federal, state and local government web resources and services.